Time;durP1;ratioP1;P1;durP2;ratioP2;P2;SDS_P1;SDS_P2;PMS_P1;PMS_P2;Temp;Humidity;BMP_temperature;BMP_pressure;BME280_temperature;BME280_humidity;BME280_pressure;Samples;Min_cycle;Max_cycle;Signal;HPM_P1;HPM_P2
2022/06/26 00:01:29;;;;;;;5.45;4.95;;;18.60;99.90;;;;;;5091945;28;20048;-78
2022/06/26 00:03:58;;;;;;;7.82;5.93;;;18.60;99.90;;;;;;5088351;28;20056;-78
2022/06/26 00:06:24;;;;;;;5.50;4.95;;;18.60;99.90;;;;;;5092023;28;20047;-78
2022/06/26 00:08:50;;;;;;;5.78;5.15;;;18.60;99.90;;;;;;5091622;28;20109;-78
2022/06/26 00:11:16;;;;;;;5.85;5.13;;;18.60;99.90;;;;;;5073051;28;20407;-78
2022/06/26 00:13:42;;;;;;;7.05;5.45;;;18.60;99.90;;;;;;5073401;28;20050;-78
2022/06/26 00:16:07;;;;;;;6.25;5.30;;;18.60;99.90;;;;;;5070217;28;20048;-78
2022/06/26 00:18:33;;;;;;;7.47;5.60;;;18.60;99.90;;;;;;5080625;28;20052;-77
2022/06/26 00:20:59;;;;;;;5.25;4.70;;;18.60;99.90;;;;;;5073183;28;20109;-78
2022/06/26 00:23:25;;;;;;;6.05;5.00;;;18.50;99.90;;;;;;5091601;28;20472;-78
2022/06/26 00:25:50;;;;;;;7.07;4.95;;;18.50;99.90;;;;;;5091655;28;20048;-78
2022/06/26 00:28:16;;;;;;;6.18;4.93;;;18.60;99.90;;;;;;5091168;28;20082;-78
2022/06/26 00:30:42;;;;;;;5.90;5.00;;;18.50;99.90;;;;;;5091399;28;20040;-78
2022/06/26 00:33:08;;;;;;;5.65;5.10;;;18.50;99.90;;;;;;5091357;28;20040;-78
2022/06/26 00:35:33;;;;;;;5.30;4.80;;;18.50;99.90;;;;;;5091669;28;20050;-78
2022/06/26 00:37:59;;;;;;;5.55;4.95;;;18.50;99.90;;;;;;5073138;28;20056;-78
2022/06/26 00:40:25;;;;;;;6.88;5.07;;;18.40;99.90;;;;;;5073432;28;20047;-78
2022/06/26 00:42:51;;;;;;;5.40;4.50;;;18.40;99.90;;;;;;5070052;28;20407;-78
2022/06/26 00:45:16;;;;;;;5.43;4.65;;;18.40;99.90;;;;;;5086658;28;20047;-78
2022/06/26 00:47:42;;;;;;;5.93;5.05;;;18.40;99.90;;;;;;5073535;28;20499;-78
2022/06/26 00:50:08;;;;;;;5.85;4.72;;;18.30;99.90;;;;;;5091198;28;20119;-78
2022/06/26 00:52:35;;;;;;;5.40;4.85;;;18.30;99.90;;;;;;5073295;28;20052;-78
2022/06/26 00:55:03;;;;;;;5.90;5.30;;;18.30;99.90;;;;;;5091058;28;20051;-78
2022/06/26 00:57:29;;;;;;;5.75;5.05;;;18.30;99.90;;;;;;5091271;28;20052;-78
2022/06/26 00:59:56;;;;;;;6.20;5.00;;;18.20;99.90;;;;;;5091292;28;20044;-78
2022/06/26 01:02:23;;;;;;;6.20;5.03;;;18.20;99.90;;;;;;5091168;28;20046;-78
2022/06/26 01:04:49;;;;;;;5.55;4.95;;;18.20;99.90;;;;;;5091193;28;20404;-78
2022/06/26 01:07:15;;;;;;;6.15;4.90;;;18.10;99.90;;;;;;5091248;28;20040;-78
2022/06/26 01:09:41;;;;;;;6.00;5.40;;;18.10;99.90;;;;;;5090960;28;20056;-77
2022/06/26 01:12:08;;;;;;;5.57;5.00;;;18.10;99.90;;;;;;5090848;28;20048;-77
2022/06/26 01:14:35;;;;;;;4.93;4.43;;;18.10;99.90;;;;;;5090459;28;20071;-77
2022/06/26 01:17:00;;;;;;;4.90;4.40;;;18.10;99.90;;;;;;5073102;28;20071;-78
2022/06/26 01:19:27;;;;;;;7.03;5.45;;;18.10;99.90;;;;;;5073336;28;20044;-77
2022/06/26 01:21:53;;;;;;;6.70;5.75;;;18.10;99.90;;;;;;5091043;28;20132;-78
2022/06/26 01:24:18;;;;;;;6.00;5.40;;;18.10;99.90;;;;;;5056456;28;20453;-77
2022/06/26 01:26:44;;;;;;;7.47;5.50;;;18.10;99.90;;;;;;5090577;28;20052;-77
2022/06/26 01:29:10;;;;;;;5.53;4.97;;;18.10;99.90;;;;;;5090795;28;20086;-77
2022/06/26 01:31:36;;;;;;;4.80;4.30;;;18.10;99.90;;;;;;5090801;28;20043;-78
2022/06/26 01:34:09;;;;;;;5.88;4.70;;;18.10;99.90;;;;;;5073299;28;20063;-77
2022/06/26 01:36:35;;;;;;;4.68;4.20;;;18.00;99.90;;;;;;5086424;28;20048;-77
2022/06/26 01:39:02;;;;;;;6.10;4.55;;;17.90;99.90;;;;;;5094307;28;20044;-78
2022/06/26 01:41:28;;;;;;;5.70;4.97;;;17.90;99.90;;;;;;5094767;28;20040;-78
2022/06/26 01:43:53;;;;;;;7.95;7.05;;;17.90;99.90;;;;;;5058534;28;20110;-76
2022/06/26 01:46:22;;;;;;;11.15;8.88;;;17.70;99.90;;;;;;5094374;28;20581;-75
2022/06/26 01:48:48;;;;;;;9.90;8.10;;;17.50;99.90;;;;;;5094594;28;20072;-79
2022/06/26 01:51:14;;;;;;;9.73;8.65;;;17.60;99.90;;;;;;5094588;28;20044;-77
2022/06/26 01:53:39;;;;;;;10.75;9.00;;;17.90;99.90;;;;;;5094516;28;20062;-75
2022/06/26 01:56:06;;;;;;;9.48;8.57;;;18.20;99.90;;;;;;5076574;28;20417;-76
2022/06/26 01:58:32;;;;;;;10.15;8.95;;;18.30;99.90;;;;;;5094387;28;20048;-79
2022/06/26 02:00:59;;;;;;;9.27;8.32;;;18.40;99.90;;;;;;5094358;28;20454;-77
2022/06/26 02:03:25;;;;;;;11.48;9.70;;;18.50;99.90;;;;;;5094380;28;20093;-80
2022/06/26 02:05:51;;;;;;;11.48;9.18;;;18.60;99.90;;;;;;5094449;28;20052;-77
2022/06/26 02:08:17;;;;;;;9.60;8.32;;;18.60;99.90;;;;;;5094108;28;20040;-75
2022/06/26 02:13:42;;;;;;;11.13;8.27;;;18.60;99.90;;;;;;5094193;28;20052;-75
2022/06/26 02:16:28;;;;;;;9.90;8.85;;;18.60;99.90;;;;;;5093462;28;20052;-75
2022/06/26 02:18:58;;;;;;;11.70;9.25;;;18.50;99.90;;;;;;5094091;28;20050;-75
2022/06/26 02:21:27;;;;;;;11.25;9.40;;;18.50;99.90;;;;;;5076168;28;20052;-75
2022/06/26 02:23:55;;;;;;;12.18;9.05;;;18.50;99.90;;;;;;5094126;28;20054;-75
2022/06/26 02:26:21;;;;;;;11.50;9.93;;;18.40;99.90;;;;;;5094068;28;20117;-75
2022/06/26 02:28:48;;;;;;;12.70;10.52;;;18.30;99.90;;;;;;5075681;28;20479;-75
2022/06/26 02:31:15;;;;;;;11.70;10.18;;;18.30;99.90;;;;;;5093703;28;20039;-75
2022/06/26 02:33:41;;;;;;;11.55;9.95;;;18.20;99.90;;;;;;5093707;28;20048;-75
2022/06/26 02:36:08;;;;;;;12.93;9.80;;;18.20;99.90;;;;;;5093868;28;20592;-75
2022/06/26 02:38:35;;;;;;;12.90;10.13;;;18.20;99.90;;;;;;5093784;28;20138;-75
2022/06/26 02:41:01;;;;;;;12.05;10.50;;;18.20;99.90;;;;;;5093594;28;20036;-75
2022/06/26 02:43:28;;;;;;;12.80;10.27;;;18.20;99.90;;;;;;5093295;28;20087;-75
2022/06/26 02:45:55;;;;;;;12.68;9.98;;;18.10;99.90;;;;;;5094015;28;20112;-74
2022/06/26 02:48:21;;;;;;;14.98;10.27;;;18.10;99.90;;;;;;5095043;28;20396;-75
2022/06/26 02:50:48;;;;;;;12.20;9.93;;;18.10;99.90;;;;;;5093647;28;20116;-76
2022/06/26 02:53:15;;;;;;;12.90;10.18;;;18.10;99.90;;;;;;5075546;28;20055;-77
2022/06/26 02:55:40;;;;;;;11.77;10.07;;;18.10;99.90;;;;;;5075211;28;20090;-76
2022/06/26 02:58:06;;;;;;;12.52;9.75;;;18.10;99.90;;;;;;5093188;28;20071;-76
2022/06/26 03:00:32;;;;;;;10.98;9.77;;;18.10;99.90;;;;;;5092864;28;20105;-76
2022/06/26 03:03:01;;;;;;;12.48;10.13;;;18.10;99.90;;;;;;5093293;28;20036;-76
2022/06/26 03:05:28;;;;;;;12.43;9.88;;;18.00;99.90;;;;;;5093289;28;20108;-76
2022/06/26 03:07:56;;;;;;;11.98;9.60;;;18.00;99.90;;;;;;5093103;28;20048;-77
2022/06/26 03:10:22;;;;;;;13.05;10.27;;;18.10;99.90;;;;;;5092663;28;20058;-76
2022/06/26 03:12:50;;;;;;;10.93;8.80;;;18.10;99.90;;;;;;5092676;28;20569;-76
2022/06/26 03:15:17;;;;;;;11.63;9.00;;;18.10;99.90;;;;;;5092553;28;20055;-77
2022/06/26 03:17:43;;;;;;;12.55;9.75;;;18.20;99.90;;;;;;5071521;28;20048;-76
2022/06/26 03:20:14;;;;;;;10.40;8.73;;;18.20;99.90;;;;;;5084885;28;20052;-76
2022/06/26 03:22:39;;;;;;;9.98;8.98;;;18.10;99.90;;;;;;5074455;28;20055;-76
2022/06/26 03:25:06;;;;;;;10.85;8.65;;;18.00;99.90;;;;;;5091634;28;20040;-76
2022/06/26 03:27:32;;;;;;;9.25;8.00;;;18.00;99.90;;;;;;5091409;28;20036;-75
2022/06/26 03:29:58;;;;;;;8.63;7.43;;;17.90;99.90;;;;;;5091466;28;20044;-75
2022/06/26 03:32:24;;;;;;;11.38;8.20;;;17.80;99.90;;;;;;5071597;28;20052;-76
2022/06/26 03:34:50;;;;;;;8.70;7.40;;;17.80;99.90;;;;;;5091586;28;20055;-75
2022/06/26 03:37:16;;;;;;;9.10;6.88;;;17.70;99.90;;;;;;5092404;28;20476;-76
2022/06/26 03:39:41;;;;;;;7.13;6.43;;;17.70;99.90;;;;;;5092400;28;20579;-76
2022/06/26 03:42:07;;;;;;;9.35;6.00;;;17.70;99.90;;;;;;5092395;28;20063;-76
2022/06/26 03:44:33;;;;;;;7.15;5.82;;;17.60;99.90;;;;;;5091985;28;20158;-75
2022/06/26 03:46:59;;;;;;;6.00;5.00;;;17.60;99.90;;;;;;5092143;28;20127;-76
2022/06/26 03:49:25;;;;;;;8.02;5.65;;;17.60;99.90;;;;;;5074255;28;20048;-76
2022/06/26 03:51:51;;;;;;;8.50;5.53;;;17.60;99.90;;;;;;5092117;28;20039;-75
2022/06/26 03:54:19;;;;;;;7.05;5.07;;;17.50;99.90;;;;;;5092105;28;20058;-77
2022/06/26 03:56:45;;;;;;;6.75;4.53;;;17.50;99.90;;;;;;5091087;28;20051;-75
2022/06/26 03:59:11;;;;;;;6.35;4.20;;;17.40;99.90;;;;;;5073990;28;20433;-75
2022/06/26 04:01:36;;;;;;;5.13;4.15;;;17.40;99.90;;;;;;5092096;28;20164;-76
2022/06/26 04:04:02;;;;;;;5.57;3.80;;;17.40;99.90;;;;;;5092081;28;20479;-76
2022/06/26 04:06:28;;;;;;;6.15;4.20;;;17.40;99.90;;;;;;5092072;28;20048;-75
2022/06/26 04:08:54;;;;;;;5.40;3.75;;;17.30;99.90;;;;;;5091798;28;20040;-77
2022/06/26 04:11:20;;;;;;;5.28;4.00;;;17.30;99.90;;;;;;5091880;28;20056;-77
2022/06/26 04:13:46;;;;;;;6.68;4.10;;;17.30;99.90;;;;;;5091744;28;20361;-77
2022/06/26 04:16:11;;;;;;;4.70;3.90;;;17.20;99.90;;;;;;5091198;28;20594;-76
2022/06/26 04:18:37;;;;;;;4.78;3.70;;;17.20;99.90;;;;;;5091857;28;20399;-76
2022/06/26 04:21:04;;;;;;;5.03;3.72;;;17.10;99.90;;;;;;5073412;28;20055;-76
2022/06/26 04:23:29;;;;;;;7.20;4.07;;;17.10;99.90;;;;;;5091761;28;20828;-77
2022/06/26 04:25:55;;;;;;;4.38;3.63;;;17.00;99.90;;;;;;5091294;28;20044;-77
2022/06/26 04:28:21;;;;;;;5.70;4.35;;;17.00;99.90;;;;;;5091200;28;20050;-77
2022/06/26 04:30:46;;;;;;;5.55;3.88;;;17.00;99.90;;;;;;5091367;28;20430;-76
2022/06/26 04:33:12;;;;;;;5.80;3.88;;;17.00;99.90;;;;;;5091485;28;20123;-75
2022/06/26 04:35:38;;;;;;;4.35;3.63;;;16.90;99.90;;;;;;5091090;28;20048;-75
2022/06/26 04:38:04;;;;;;;5.30;3.78;;;16.90;99.90;;;;;;5091235;28;20052;-76
2022/06/26 04:40:30;;;;;;;5.72;3.72;;;16.80;99.90;;;;;;5091519;28;20066;-77
2022/06/26 04:42:56;;;;;;;4.95;3.50;;;16.90;99.90;;;;;;5091140;28;20146;-76
2022/06/26 04:45:22;;;;;;;5.28;3.80;;;16.90;99.90;;;;;;5090775;28;20064;-76
2022/06/26 04:47:48;;;;;;;5.38;3.30;;;16.80;99.90;;;;;;5091252;28;20047;-76
2022/06/26 04:50:14;;;;;;;4.50;3.47;;;16.80;99.90;;;;;;5090999;28;20088;-77
2022/06/26 04:52:47;;;;;;;4.32;3.47;;;16.80;99.90;;;;;;5091118;28;20048;-78
2022/06/26 04:55:14;;;;;;;4.88;3.70;;;16.90;99.90;;;;;;5091029;28;20055;-78
2022/06/26 04:57:40;;;;;;;4.22;3.58;;;16.80;99.90;;;;;;5091504;28;20063;-77
2022/06/26 05:00:11;;;;;;;4.82;3.90;;;16.80;99.90;;;;;;5073236;28;20093;-79
2022/06/26 05:02:37;;;;;;;5.43;4.20;;;16.80;99.90;;;;;;5090767;28;20602;-77
2022/06/26 05:05:04;;;;;;;6.35;3.92;;;16.80;99.90;;;;;;5090863;28;20126;-79
2022/06/26 05:07:30;;;;;;;6.05;3.90;;;16.80;99.90;;;;;;5091910;28;20059;-76
2022/06/26 05:09:56;;;;;;;5.93;4.50;;;16.70;99.90;;;;;;5077028;28;20052;-79
2022/06/26 05:12:21;;;;;;;7.18;4.40;;;16.80;99.90;;;;;;5076839;28;20074;-78
2022/06/26 05:14:47;;;;;;;5.95;4.38;;;16.80;99.90;;;;;;5094272;28;20091;-77
2022/06/26 05:17:13;;;;;;;5.57;4.40;;;16.80;99.90;;;;;;5095237;28;20063;-76
2022/06/26 05:19:38;;;;;;;7.38;4.72;;;16.90;99.90;;;;;;5095108;28;20048;-78
2022/06/26 05:22:04;;;;;;;7.55;4.82;;;17.10;99.90;;;;;;5095396;28;20055;-78
2022/06/26 05:24:30;;;;;;;5.78;4.43;;;17.20;99.90;;;;;;5076987;28;20062;-78
2022/06/26 05:26:58;;;;;;;5.90;4.70;;;17.30;99.90;;;;;;5094978;28;20123;-78
2022/06/26 05:29:26;;;;;;;6.18;4.45;;;17.50;99.90;;;;;;5076968;28;20121;-79
2022/06/26 05:31:53;;;;;;;5.15;4.45;;;17.60;99.90;;;;;;5094801;28;20043;-79
2022/06/26 05:34:19;;;;;;;5.57;4.43;;;17.60;99.90;;;;;;5076901;28;20040;-77
2022/06/26 05:36:44;;;;;;;5.32;4.20;;;17.70;99.90;;;;;;5094719;28;20381;-77
2022/06/26 05:39:10;;;;;;;6.72;4.25;;;17.80;99.90;;;;;;5094690;28;20048;-77
2022/06/26 05:41:36;;;;;;;6.63;4.57;;;17.80;99.90;;;;;;5094660;28;20048;-78
2022/06/26 05:44:02;;;;;;;5.20;4.03;;;17.80;99.90;;;;;;5094808;28;20044;-75
2022/06/26 05:46:27;;;;;;;8.50;4.32;;;17.80;99.90;;;;;;5094535;28;20105;-79
2022/06/26 05:48:53;;;;;;;5.85;4.00;;;17.80;99.90;;;;;;5076252;28;20094;-75
2022/06/26 05:51:19;;;;;;;5.28;4.00;;;17.80;99.90;;;;;;5094732;28;20056;-75
2022/06/26 05:53:44;;;;;;;4.63;4.13;;;17.70;99.90;;;;;;5094364;28;20048;-76
2022/06/26 05:56:10;;;;;;;5.10;3.97;;;17.70;99.90;;;;;;5094539;28;20091;-76
2022/06/26 05:58:36;;;;;;;5.28;4.05;;;17.70;99.90;;;;;;5094288;28;20075;-76
2022/06/26 06:01:02;;;;;;;5.95;4.45;;;17.80;99.90;;;;;;5094170;28;20094;-76
2022/06/26 06:03:27;;;;;;;4.70;3.55;;;17.90;99.90;;;;;;5076765;28;20101;-77
2022/06/26 06:05:53;;;;;;;4.75;3.80;;;18.00;99.90;;;;;;5094285;28;20440;-76
2022/06/26 06:08:19;;;;;;;5.03;3.88;;;18.10;99.90;;;;;;5094255;28;20056;-76
2022/06/26 06:10:45;;;;;;;5.85;3.90;;;18.20;99.90;;;;;;5059336;28;20506;-76
2022/06/26 06:13:10;;;;;;;5.63;4.22;;;18.30;99.90;;;;;;5093927;28;20441;-75
2022/06/26 06:15:36;;;;;;;5.68;4.03;;;18.40;99.90;;;;;;5075483;28;20059;-75
2022/06/26 06:18:02;;;;;;;5.55;4.45;;;18.50;99.90;;;;;;5075686;28;20051;-75
2022/06/26 06:20:28;;;;;;;5.82;4.40;;;18.60;99.90;;;;;;5074690;28;20056;-78
2022/06/26 06:22:59;;;;;;;7.45;5.22;;;18.60;99.90;;;;;;5093999;28;20096;-76
2022/06/26 06:25:25;;;;;;;7.57;5.40;;;18.70;99.90;;;;;;5093931;28;20040;-77
2022/06/26 06:27:51;;;;;;;7.57;5.80;;;18.70;99.90;;;;;;5093926;28;20043;-75
2022/06/26 06:30:17;;;;;;;8.00;6.10;;;18.70;99.90;;;;;;5093914;28;20044;-78
2022/06/26 06:32:45;;;;;;;8.18;6.65;;;18.80;99.90;;;;;;5094199;28;20676;-76
2022/06/26 06:35:13;;;;;;;8.18;6.68;;;18.90;99.90;;;;;;5077267;28;20044;-75
2022/06/26 06:37:43;;;;;;;8.63;7.70;;;18.80;99.90;;;;;;5096130;28;20055;-77
2022/06/26 06:40:11;;;;;;;8.60;7.20;;;18.70;99.90;;;;;;5077972;28;20832;-77
2022/06/26 06:42:36;;;;;;;9.52;8.18;;;18.70;99.90;;;;;;5076846;28;20097;-77
2022/06/26 06:45:03;;;;;;;11.07;7.47;;;18.60;99.90;;;;;;5092925;28;20588;-76
2022/06/26 06:47:29;;;;;;;9.23;7.45;;;18.60;99.90;;;;;;5093701;28;20048;-76
2022/06/26 06:49:54;;;;;;;9.93;7.53;;;18.50;99.90;;;;;;5093390;28;20416;-76
2022/06/26 06:52:20;;;;;;;9.90;7.90;;;18.40;99.90;;;;;;5093695;28;20040;-74
2022/06/26 06:54:46;;;;;;;8.88;7.82;;;18.30;99.90;;;;;;5093066;28;20468;-68
2022/06/26 06:57:12;;;;;;;9.43;7.38;;;18.30;99.90;;;;;;5093493;28;20404;-69
2022/06/26 06:59:37;;;;;;;10.68;8.73;;;18.30;99.90;;;;;;5093065;28;20044;-69
2022/06/26 07:02:03;;;;;;;10.35;8.32;;;18.30;99.90;;;;;;5093349;28;20050;-68
2022/06/26 07:04:29;;;;;;;12.13;8.32;;;18.40;99.90;;;;;;5093478;28;20040;-69
2022/06/26 07:06:55;;;;;;;10.35;8.10;;;18.50;99.90;;;;;;5093124;28;20047;-68
2022/06/26 07:09:21;;;;;;;9.02;7.85;;;18.50;99.90;;;;;;5074839;28;20063;-68
2022/06/26 07:11:47;;;;;;;11.02;7.80;;;18.60;99.90;;;;;;5071009;28;20048;-69
2022/06/26 07:14:12;;;;;;;10.45;8.38;;;18.60;99.90;;;;;;5087149;28;20531;-70
2022/06/26 07:16:38;;;;;;;10.98;8.07;;;18.80;99.90;;;;;;5073907;28;20126;-68
2022/06/26 07:19:04;;;;;;;8.52;7.38;;;18.80;99.90;;;;;;5092107;28;20377;-69
2022/06/26 07:21:30;;;;;;;9.30;7.20;;;18.80;99.90;;;;;;5088610;28;20048;-68
2022/06/26 07:23:56;;;;;;;8.40;7.22;;;18.80;99.90;;;;;;5083898;28;20052;-68
2022/06/26 07:26:22;;;;;;;8.52;6.78;;;18.80;99.90;;;;;;5080448;28;20453;-69
2022/06/26 07:28:47;;;;;;;8.80;6.88;;;18.80;99.90;;;;;;5080436;28;20044;-67
2022/06/26 07:31:13;;;;;;;9.15;7.22;;;18.80;99.90;;;;;;5081236;28;20076;-68
2022/06/26 07:36:23;;;;;;;10.02;7.18;;;19.00;99.90;;;;;;5078471;28;20052;-68
2022/06/26 07:38:48;;;;;;;9.18;7.35;;;19.00;99.90;;;;;;5091050;28;20454;-67
2022/06/26 07:41:14;;;;;;;8.65;7.28;;;18.90;99.90;;;;;;5066692;28;20036;-68
2022/06/26 07:43:40;;;;;;;8.90;7.20;;;18.80;99.90;;;;;;5080317;28;20108;-69
2022/06/26 07:46:06;;;;;;;8.98;7.68;;;18.70;99.90;;;;;;5070907;28;20048;-68
2022/06/26 07:48:33;;;;;;;8.55;7.07;;;18.60;99.90;;;;;;5085915;28;20047;-68
2022/06/26 07:50:59;;;;;;;8.90;7.57;;;18.60;99.90;;;;;;5090923;28;20079;-69
2022/06/26 07:53:24;;;;;;;9.88;7.63;;;18.80;99.90;;;;;;5083409;28;20151;-68
2022/06/26 07:55:51;;;;;;;9.68;7.68;;;19.00;99.90;;;;;;5074534;28;20520;-68
2022/06/26 07:58:16;;;;;;;8.50;6.85;;;19.10;99.90;;;;;;5079930;28;20079;-68
2022/06/26 08:00:42;;;;;;;7.95;6.40;;;19.20;99.90;;;;;;5075043;28;20090;-68
2022/06/26 08:03:10;;;;;;;7.32;6.63;;;19.30;99.90;;;;;;5081144;28;20123;-69
2022/06/26 08:05:37;;;;;;;8.52;6.70;;;19.30;99.90;;;;;;5074877;28;20439;-68
2022/06/26 08:08:04;;;;;;;6.75;5.82;;;19.30;99.90;;;;;;5079922;28;20120;-68
2022/06/26 08:10:30;;;;;;;6.72;5.90;;;19.50;99.90;;;;;;5071847;28;20068;-68
2022/06/26 08:12:56;;;;;;;7.45;6.65;;;19.50;99.90;;;;;;5085760;28;20653;-69
2022/06/26 08:15:23;;;;;;;6.70;5.90;;;19.60;99.90;;;;;;5080519;28;20102;-69
2022/06/26 08:17:49;;;;;;;9.15;7.60;;;19.70;99.90;;;;;;5080764;28;20773;-68
2022/06/26 08:20:15;;;;;;;9.40;7.35;;;19.80;99.90;;;;;;5083451;28;20108;-68
2022/06/26 08:22:41;;;;;;;8.60;7.40;;;19.90;99.90;;;;;;5090979;28;20055;-68
2022/06/26 08:25:07;;;;;;;9.52;8.50;;;19.70;99.90;;;;;;5066513;28;20036;-69
2022/06/26 08:27:33;;;;;;;9.00;7.97;;;19.60;99.90;;;;;;5085365;28;20045;-68
2022/06/26 08:29:58;;;;;;;8.77;7.78;;;19.60;99.90;;;;;;5080333;28;20385;-68
2022/06/26 08:32:24;;;;;;;10.93;8.15;;;19.50;99.90;;;;;;5079238;28;20476;-69
2022/06/26 08:34:50;;;;;;;7.78;6.97;;;19.60;99.90;;;;;;5072879;28;20131;-69
2022/06/26 08:37:16;;;;;;;7.03;6.22;;;19.70;99.90;;;;;;5078441;28;20435;-69
2022/06/26 08:39:43;;;;;;;8.40;6.93;;;19.70;99.90;;;;;;5079149;28;20126;-69
2022/06/26 08:42:09;;;;;;;5.68;4.80;;;19.80;99.90;;;;;;5084049;28;20449;-69
2022/06/26 08:44:43;;;;;;;6.68;5.57;;;19.80;99.90;;;;;;5066797;28;20101;-69
2022/06/26 08:47:10;;;;;;;7.78;6.63;;;19.90;99.90;;;;;;5077371;28;20328;-68
2022/06/26 08:49:36;;;;;;;7.22;6.28;;;19.90;99.90;;;;;;5078687;28;20036;-69
2022/06/26 08:52:03;;;;;;;7.80;6.25;;;19.90;99.90;;;;;;5076904;28;20040;-69
2022/06/26 08:54:30;;;;;;;6.72;5.85;;;19.90;99.90;;;;;;5047087;28;20051;-69
2022/06/26 08:56:56;;;;;;;5.28;4.78;;;20.10;99.90;;;;;;5080423;28;20087;-69
2022/06/26 08:59:22;;;;;;;6.60;5.40;;;20.20;99.90;;;;;;5081368;28;20048;-68
2022/06/26 09:01:48;;;;;;;5.32;4.72;;;20.20;99.90;;;;;;5075068;28;20089;-68
2022/06/26 09:04:14;;;;;;;4.75;4.05;;;20.30;99.90;;;;;;5080055;28;20090;-69
2022/06/26 09:06:42;;;;;;;5.05;4.53;;;20.50;99.90;;;;;;5090533;28;20113;-69
2022/06/26 09:09:27;;;;;;;4.60;4.05;;;20.60;99.90;;;;;;5084915;28;20048;-68
2022/06/26 09:12:01;;;;;;;4.38;3.75;;;20.60;99.90;;;;;;5077848;28;20541;-68
2022/06/26 09:14:28;;;;;;;5.15;4.10;;;20.60;99.90;;;;;;5087785;28;20058;-70
2022/06/26 09:16:56;;;;;;;5.13;4.20;;;20.50;99.90;;;;;;5077298;28;20114;-68
2022/06/26 09:19:26;;;;;;;4.00;2.75;;;20.50;99.90;;;;;;5084186;28;20559;-69
2022/06/26 09:22:04;;;;;;;4.03;2.90;;;20.60;99.90;;;;;;5080466;28;20123;-70
2022/06/26 09:24:29;;;;;;;4.38;3.78;;;20.70;99.90;;;;;;5079711;28;20048;-69
2022/06/26 09:27:04;;;;;;;4.32;3.22;;;20.70;99.90;;;;;;5056484;28;20439;-69
2022/06/26 09:29:30;;;;;;;4.63;3.33;;;20.60;99.90;;;;;;5081242;28;20045;-69
2022/06/26 09:32:05;;;;;;;4.03;3.58;;;20.60;99.90;;;;;;5081720;28;20040;-68
2022/06/26 09:34:31;;;;;;;4.18;3.78;;;20.50;99.90;;;;;;5080735;28;20044;-69
2022/06/26 09:36:58;;;;;;;4.60;3.40;;;20.30;99.90;;;;;;5086093;28;20047;-68
2022/06/26 09:39:25;;;;;;;4.05;3.60;;;20.20;99.90;;;;;;5050862;28;20052;-69
2022/06/26 09:41:51;;;;;;;5.85;3.90;;;20.20;99.90;;;;;;5073774;28;20051;-68
2022/06/26 09:44:21;;;;;;;4.72;3.78;;;20.20;99.90;;;;;;5076364;28;20057;-69
2022/06/26 09:46:47;;;;;;;4.07;2.90;;;20.30;99.90;;;;;;5060913;28;20096;-68
2022/06/26 09:49:13;;;;;;;4.90;3.30;;;20.50;99.90;;;;;;5082625;28;20089;-68
2022/06/26 09:51:40;;;;;;;3.88;2.88;;;20.70;99.90;;;;;;5084979;28;20551;-69
2022/06/26 09:54:06;;;;;;;3.35;2.50;;;20.90;99.90;;;;;;5090796;28;20086;-69
2022/06/26 09:56:33;;;;;;;4.32;3.30;;;20.90;99.90;;;;;;5090943;28;20044;-69
2022/06/26 09:58:59;;;;;;;2.65;2.42;;;20.90;99.90;;;;;;5088475;28;20550;-69
2022/06/26 10:07:02;;;;;;;3.22;2.17;;;20.60;99.90;;;;;;5074821;28;20101;-68
2022/06/26 10:09:28;;;;;;;3.40;2.30;;;20.60;99.90;;;;;;5083822;28;20063;-71
2022/06/26 10:11:58;;;;;;;3.30;2.25;;;20.50;99.90;;;;;;5083332;28;20571;-68
2022/06/26 10:14:27;;;;;;;2.92;2.15;;;20.60;99.90;;;;;;5087853;28;20071;-68
2022/06/26 10:17:20;;;;;;;3.15;2.60;;;20.60;99.90;;;;;;5093777;28;20120;-69
2022/06/26 10:19:58;;;;;;;2.88;2.30;;;20.60;99.90;;;;;;5072358;28;20052;-70
2022/06/26 10:22:24;;;;;;;2.97;2.17;;;20.60;99.90;;;;;;5074613;28;20392;-69
2022/06/26 10:24:58;;;;;;;3.10;2.20;;;20.60;99.90;;;;;;5083785;28;20052;-68
2022/06/26 10:27:25;;;;;;;3.30;2.50;;;20.60;99.90;;;;;;5075249;28;20098;-69
2022/06/26 10:30:21;;;;;;;4.15;2.20;;;20.60;99.90;;;;;;5078748;28;20500;-70
2022/06/26 10:33:08;;;;;;;4.95;2.88;;;20.70;99.90;;;;;;5076980;28;20052;-69
2022/06/26 10:35:43;;;;;;;4.20;2.88;;;20.80;99.90;;;;;;5079946;28;20044;-70
2022/06/26 10:38:27;;;;;;;4.07;3.00;;;20.90;99.90;;;;;;5076636;28;20041;-69
2022/06/26 10:44:02;;;;;;;4.35;3.13;;;21.00;99.90;;;;;;5085521;28;20098;-70
2022/06/26 10:46:46;;;;;;;3.35;2.70;;;20.90;99.90;;;;;;5093132;28;20056;-71
2022/06/26 10:49:12;;;;;;;3.95;2.67;;;20.90;99.90;;;;;;5077416;28;20055;-70
2022/06/26 10:51:43;;;;;;;3.70;2.60;;;20.90;99.90;;;;;;5061125;28;20040;-70
2022/06/26 10:54:24;;;;;;;3.70;2.67;;;21.00;99.90;;;;;;5082345;28;20477;-70
2022/06/26 10:57:01;;;;;;;2.97;2.25;;;21.10;99.90;;;;;;5086152;28;20198;-69
2022/06/26 10:59:28;;;;;;;4.68;2.15;;;21.20;99.90;;;;;;5090441;28;20052;-70
2022/06/26 11:01:54;;;;;;;3.97;2.63;;;21.10;99.90;;;;;;5075745;28;20108;-70
2022/06/26 11:04:19;;;;;;;3.45;2.17;;;21.10;99.90;;;;;;5073485;28;20087;-70
2022/06/26 11:06:46;;;;;;;3.70;2.80;;;21.10;99.90;;;;;;5072397;28;20044;-70
2022/06/26 11:09:11;;;;;;;4.15;2.67;;;21.10;99.90;;;;;;5071524;28;20040;-69
2022/06/26 11:11:37;;;;;;;3.88;2.50;;;21.10;99.90;;;;;;5074140;28;20054;-70
2022/06/26 11:14:08;;;;;;;3.88;2.75;;;21.20;99.90;;;;;;5073105;28;20082;-69
2022/06/26 11:16:38;;;;;;;3.78;2.90;;;21.20;99.90;;;;;;5090235;28;20555;-69
2022/06/26 11:19:28;;;;;;;3.88;2.70;;;21.20;99.90;;;;;;5093007;28;20101;-70
2022/06/26 11:22:05;;;;;;;5.55;2.90;;;21.20;99.90;;;;;;5091656;28;20049;-71
2022/06/26 11:24:32;;;;;;;4.47;2.70;;;21.10;99.90;;;;;;5074369;28;20548;-70
2022/06/26 11:26:58;;;;;;;3.25;2.40;;;21.10;99.90;;;;;;5092802;28;20507;-70
2022/06/26 11:29:24;;;;;;;3.22;2.50;;;21.10;99.90;;;;;;5092994;28;20044;-69
2022/06/26 11:31:50;;;;;;;3.33;2.00;;;21.10;99.90;;;;;;5092240;28;20048;-70
2022/06/26 11:34:17;;;;;;;3.17;2.22;;;21.30;99.90;;;;;;5078339;28;20493;-70
2022/06/26 11:36:50;;;;;;;4.75;2.25;;;21.40;99.90;;;;;;5054546;28;20168;-71
2022/06/26 11:39:16;;;;;;;3.72;2.45;;;21.50;99.90;;;;;;5054456;28;20051;-70
2022/06/26 11:41:43;;;;;;;4.30;2.35;;;21.60;99.90;;;;;;5082381;28;20039;-70
2022/06/26 11:44:08;;;;;;;5.07;2.50;;;21.70;99.90;;;;;;5092729;28;20039;-69
2022/06/26 11:46:34;;;;;;;4.45;2.35;;;21.70;99.90;;;;;;5091400;28;20044;-69
2022/06/26 11:49:00;;;;;;;3.75;2.85;;;21.70;99.90;;;;;;5092528;28;20058;-69
2022/06/26 11:51:31;;;;;;;3.05;2.25;;;21.70;99.90;;;;;;5092246;28;20075;-69
2022/06/26 11:53:56;;;;;;;3.80;2.15;;;21.70;99.90;;;;;;5092391;28;20396;-69
2022/06/26 11:56:25;;;;;;;3.08;1.92;;;21.70;99.90;;;;;;5092257;28;20040;-69
2022/06/26 11:58:53;;;;;;;2.30;1.70;;;21.80;99.90;;;;;;5092097;28;20063;-68
2022/06/26 12:01:19;;;;;;;2.72;1.40;;;21.80;99.90;;;;;;5092356;28;20048;-70
2022/06/26 12:03:49;;;;;;;3.83;1.50;;;21.70;99.90;;;;;;5074391;28;20127;-69
2022/06/26 12:06:34;;;;;;;3.03;1.73;;;21.80;99.90;;;;;;5091978;28;20048;-69
2022/06/26 12:09:13;;;;;;;4.90;1.77;;;21.80;99.90;;;;;;5091997;28;20056;-69
2022/06/26 12:11:42;;;;;;;4.07;1.98;;;21.80;99.90;;;;;;5091499;28;20121;-70
2022/06/26 12:14:12;;;;;;;2.95;1.70;;;21.90;99.90;;;;;;5092007;28;20060;-69
2022/06/26 12:17:00;;;;;;;6.55;1.95;;;21.90;99.90;;;;;;5090861;28;20154;-69
2022/06/26 12:19:39;;;;;;;3.50;1.80;;;22.00;99.90;;;;;;5091870;28;20078;-69
2022/06/26 12:22:05;;;;;;;2.33;1.42;;;22.00;99.90;;;;;;5091730;28;20409;-69
2022/06/26 12:24:31;;;;;;;3.75;1.80;;;22.00;99.90;;;;;;5091936;28;20050;-69
2022/06/26 12:26:57;;;;;;;2.75;1.65;;;22.00;99.90;;;;;;5091710;28;20044;-70
2022/06/26 12:29:25;;;;;;;3.75;1.90;;;22.00;99.90;;;;;;5091810;28;20054;-69
2022/06/26 12:31:54;;;;;;;2.30;1.50;;;22.20;99.90;;;;;;5091615;28;20036;-68
2022/06/26 12:34:20;;;;;;;3.38;1.77;;;22.20;99.90;;;;;;5073723;28;20054;-69
2022/06/26 12:36:46;;;;;;;2.72;1.65;;;22.20;99.90;;;;;;5091457;28;20048;-69
2022/06/26 12:39:11;;;;;;;3.88;1.95;;;22.00;99.90;;;;;;5091514;28;20047;-68
2022/06/26 12:41:38;;;;;;;3.47;2.10;;;21.90;99.90;;;;;;5073396;28;20044;-68
2022/06/26 12:44:04;;;;;;;4.03;1.95;;;21.80;99.90;;;;;;5091663;28;20063;-68
2022/06/26 12:46:31;;;;;;;2.53;1.98;;;21.70;99.90;;;;;;5090862;28;20084;-68
2022/06/26 12:48:58;;;;;;;3.35;1.65;;;21.60;99.90;;;;;;5091588;28;20454;-69
2022/06/26 12:51:24;;;;;;;3.60;1.85;;;21.60;99.90;;;;;;5073101;28;20044;-69
2022/06/26 12:53:50;;;;;;;3.85;2.00;;;21.50;99.90;;;;;;5091249;28;20052;-69
2022/06/26 12:56:16;;;;;;;4.47;1.98;;;21.50;99.90;;;;;;5090909;28;20450;-69
2022/06/26 12:58:42;;;;;;;3.42;1.90;;;21.40;99.90;;;;;;5090838;28;20048;-68
2022/06/26 13:01:08;;;;;;;3.03;1.70;;;21.40;99.90;;;;;;5091247;28;20043;-69